createdAt,value
2022-09-23T00:00:21.221Z,3.05
2022-09-23T00:03:24.063Z,2.75
2022-09-23T00:06:26.970Z,1.48
2022-09-23T00:09:29.794Z,3.20
2022-09-23T00:12:31.958Z,2.35
2022-09-23T00:15:34.422Z,3.30
2022-09-23T00:18:36.802Z,2.90
2022-09-23T00:21:39.415Z,2.53
2022-09-23T00:24:41.652Z,2.33
2022-09-23T00:27:43.789Z,5.97
2022-09-23T00:30:46.502Z,2.72
2022-09-23T00:33:49.179Z,2.20
2022-09-23T00:36:52.483Z,2.25
2022-09-23T00:39:55.426Z,3.47
2022-09-23T00:42:57.826Z,2.38
2022-09-23T00:46:00.724Z,2.17
2022-09-23T00:49:03.911Z,2.45
2022-09-23T00:52:06.455Z,2.58
2022-09-23T00:55:09.096Z,1.88
2022-09-23T00:58:11.946Z,1.63
2022-09-23T01:01:13.872Z,2.00
2022-09-23T01:04:16.481Z,3.08
2022-09-23T01:07:19.618Z,3.30
2022-09-23T01:10:22.871Z,2.47
2022-09-23T01:13:26.194Z,2.65
2022-09-23T01:16:28.384Z,3.67
2022-09-23T01:19:30.630Z,1.90
2022-09-23T01:22:33.495Z,3.67
2022-09-23T01:25:35.883Z,2.95
2022-09-23T01:28:38.815Z,2.97
2022-09-23T01:31:41.880Z,2.03
2022-09-23T01:34:44.355Z,2.75
2022-09-23T01:37:47.302Z,3.55
2022-09-23T01:40:49.857Z,2.55
2022-09-23T01:43:52.953Z,2.13
2022-09-23T01:46:55.830Z,2.63
2022-09-23T01:49:58.264Z,2.03
2022-09-23T01:53:01.405Z,3.83
2022-09-23T01:56:04.083Z,2.80
2022-09-23T01:59:07.120Z,4.57
2022-09-23T02:02:09.545Z,3.67
2022-09-23T02:05:12.185Z,2.38
2022-09-23T02:08:14.738Z,2.72
2022-09-23T02:11:17.305Z,2.33
2022-09-23T02:14:19.968Z,2.05
2022-09-23T02:17:22.433Z,1.63
2022-09-23T02:20:24.846Z,2.25
2022-09-23T02:23:27.346Z,3.55
2022-09-23T02:26:30.019Z,1.70
2022-09-23T02:29:32.961Z,1.88
2022-09-23T02:32:35.583Z,3.40
2022-09-23T02:35:38.169Z,1.98
2022-09-23T02:38:41.637Z,4.20
2022-09-23T02:41:44.322Z,2.30
2022-09-23T02:44:47.354Z,1.90
2022-09-23T02:47:49.786Z,2.03
2022-09-23T02:50:52.868Z,1.60
2022-09-23T02:53:55.674Z,2.58
2022-09-23T02:56:58.754Z,2.30
2022-09-23T03:00:01.631Z,3.13
2022-09-23T03:03:04.259Z,2.83
2022-09-23T03:06:06.660Z,2.97
2022-09-23T03:09:09.231Z,2.38
2022-09-23T03:12:12.227Z,3.53
2022-09-23T03:15:14.639Z,2.72
2022-09-23T03:18:17.494Z,1.70
2022-09-23T03:21:20.156Z,1.88
2022-09-23T03:24:23.032Z,2.13
2022-09-23T03:27:25.547Z,2.75
2022-09-23T03:30:28.832Z,1.80
2022-09-23T03:33:32.447Z,2.15
2022-09-23T03:36:35.007Z,1.95
2022-09-23T03:39:37.157Z,4.35
2022-09-23T03:42:40.093Z,2.15
2022-09-23T03:45:42.899Z,3.10
2022-09-23T03:48:45.293Z,2.00
2022-09-23T03:51:48.247Z,2.70
2022-09-23T03:54:51.048Z,3.25
2022-09-23T03:57:53.908Z,2.67
2022-09-23T04:00:56.642Z,2.85
2022-09-23T04:03:58.844Z,2.38
2022-09-23T04:07:01.813Z,1.63
2022-09-23T04:10:05.026Z,2.05
2022-09-23T04:13:08.297Z,2.35
2022-09-23T04:16:12.022Z,1.92
2022-09-23T04:19:15.136Z,3.83
2022-09-23T04:22:18.431Z,1.92
2022-09-23T04:25:22.216Z,2.28
2022-09-23T04:28:25.016Z,2.55
2022-09-23T04:31:27.623Z,2.55
2022-09-23T04:34:30.684Z,1.98
2022-09-23T04:37:34.261Z,2.20
2022-09-23T04:40:37.170Z,2.42
2022-09-23T04:43:39.816Z,4.28
2022-09-23T04:46:42.734Z,2.65
2022-09-23T04:49:45.682Z,3.08
2022-09-23T04:52:48.006Z,3.92
2022-09-23T04:55:50.620Z,2.85
2022-09-23T04:58:53.125Z,2.90
2022-09-23T05:01:55.713Z,3.05
2022-09-23T05:04:58.429Z,4.28
2022-09-23T05:08:01.064Z,2.53
2022-09-23T05:11:04.052Z,3.70
2022-09-23T05:14:06.916Z,3.92
2022-09-23T05:17:09.499Z,3.38
2022-09-23T05:20:12.380Z,3.78
2022-09-23T05:23:14.760Z,3.92
2022-09-23T05:26:17.286Z,3.88
2022-09-23T05:29:19.851Z,4.72
2022-09-23T05:32:22.383Z,3.38
2022-09-23T05:35:24.852Z,4.13
2022-09-23T05:38:27.493Z,4.63
2022-09-23T05:41:29.681Z,4.35
2022-09-23T05:44:31.993Z,4.28
2022-09-23T05:47:34.907Z,2.08
2022-09-23T05:50:37.008Z,4.50
2022-09-23T05:53:39.616Z,4.50
2022-09-23T05:56:42.276Z,4.72
2022-09-23T05:59:44.554Z,3.53
2022-09-23T06:02:46.761Z,3.28
2022-09-23T06:05:49.453Z,3.42
2022-09-23T06:08:51.668Z,4.40
2022-09-23T06:11:54.170Z,5.20
2022-09-23T06:14:56.961Z,3.25
2022-09-23T06:17:59.447Z,2.97
2022-09-23T06:21:02.147Z,3.33
2022-09-23T06:24:04.415Z,3.83
2022-09-23T06:27:07.519Z,3.85
2022-09-23T06:30:09.942Z,3.28
2022-09-23T06:33:12.418Z,4.38
2022-09-23T06:36:28.258Z,3.15
2022-09-23T06:39:37.290Z,3.75
2022-09-23T06:42:41.473Z,4.50
2022-09-23T06:45:45.173Z,2.40
2022-09-23T06:48:48.419Z,4.20
2022-09-23T06:51:51.039Z,2.75
2022-09-23T06:54:53.889Z,4.07
2022-09-23T06:57:56.780Z,3.33
2022-09-23T07:00:59.739Z,4.65
2022-09-23T07:04:02.381Z,3.10
2022-09-23T07:07:04.749Z,2.35
2022-09-23T07:10:07.276Z,3.88
2022-09-23T07:13:15.530Z,4.28
2022-09-23T07:16:19.301Z,2.75
2022-09-23T07:19:22.465Z,3.30
2022-09-23T07:22:25.302Z,3.67
2022-09-23T07:25:27.934Z,4.45
2022-09-23T07:28:30.524Z,4.22
2022-09-23T07:31:39.091Z,2.70
2022-09-23T07:34:42.820Z,4.25
2022-09-23T07:37:46.101Z,3.22
2022-09-23T07:40:49.057Z,3.65
2022-09-23T07:43:52.446Z,4.00
2022-09-23T07:46:55.725Z,3.80
2022-09-23T07:49:58.728Z,4.13
2022-09-23T07:53:01.262Z,3.47
2022-09-23T07:56:04.100Z,2.95
2022-09-23T07:59:06.396Z,3.20
2022-09-23T08:02:09.023Z,3.83
2022-09-23T08:05:11.801Z,4.07
2022-09-23T08:08:15.045Z,5.10
2022-09-23T08:11:18.350Z,4.63
2022-09-23T08:14:21.629Z,3.42
2022-09-23T08:17:24.637Z,5.07
2022-09-23T08:20:28.429Z,7.95
2022-09-23T08:23:30.645Z,3.65
2022-09-23T08:26:33.181Z,4.15
2022-09-23T08:29:36.014Z,3.47
2022-09-23T08:32:39.392Z,4.28
2022-09-23T08:35:42.131Z,4.35
2022-09-23T08:38:44.299Z,3.70
2022-09-23T08:41:46.462Z,4.95
2022-09-23T08:44:48.585Z,4.15
2022-09-23T08:47:51.115Z,5.93
2022-09-23T08:50:54.011Z,3.70
2022-09-23T08:53:56.385Z,3.63
2022-09-23T08:56:59.420Z,3.20
2022-09-23T09:00:02.562Z,3.92
2022-09-23T09:03:06.199Z,4.50
2022-09-23T09:06:08.743Z,5.97
2022-09-23T09:09:11.957Z,3.53
2022-09-23T09:12:14.787Z,3.00
2022-09-23T09:15:17.429Z,4.28
2022-09-23T09:18:20.381Z,3.30
2022-09-23T09:21:23.317Z,4.05
2022-09-23T09:24:26.232Z,3.45
2022-09-23T09:27:29.215Z,4.00
2022-09-23T09:30:32.104Z,5.45
2022-09-23T09:33:35.070Z,4.10
2022-09-23T09:36:37.876Z,3.22
2022-09-23T09:39:40.416Z,6.03
2022-09-23T09:42:42.883Z,3.95
2022-09-23T09:45:45.027Z,5.35
2022-09-23T09:48:50.310Z,5.00
2022-09-23T09:51:52.666Z,5.70
2022-09-23T09:54:55.508Z,3.65
2022-09-23T09:57:58.125Z,4.22
2022-09-23T10:01:00.773Z,4.43
2022-09-23T10:04:03.669Z,3.35
2022-09-23T10:07:06.315Z,4.40
2022-09-23T10:10:22.299Z,3.58
2022-09-23T10:13:31.591Z,4.25
2022-09-23T10:16:34.552Z,3.92
2022-09-23T10:19:36.706Z,6.68
2022-09-23T10:22:39.380Z,7.22
2022-09-23T10:25:41.882Z,3.88
2022-09-23T10:28:45.105Z,4.55
2022-09-23T10:31:48.159Z,12.70
2022-09-23T10:34:51.477Z,12.05
2022-09-23T10:37:54.311Z,19.67
2022-09-23T10:40:57.396Z,22.17
2022-09-23T10:44:00.824Z,27.35
2022-09-23T10:47:04.961Z,28.30
2022-09-23T10:50:07.756Z,32.25
2022-09-23T10:53:10.680Z,27.63
2022-09-23T10:56:13.660Z,31.40
2022-09-23T10:59:16.970Z,36.67
2022-09-23T11:02:19.133Z,33.88
2022-09-23T11:05:21.793Z,28.80
2022-09-23T11:08:24.632Z,25.90
2022-09-23T11:11:27.098Z,27.88
2022-09-23T11:14:30.047Z,29.70
2022-09-23T11:17:32.474Z,28.60
2022-09-23T11:20:35.443Z,28.60
2022-09-23T11:23:38.068Z,22.77
2022-09-23T11:26:40.608Z,25.50
2022-09-23T11:29:43.530Z,28.80
2022-09-23T11:32:46.380Z,22.13
2022-09-23T11:35:48.570Z,21.85
2022-09-23T11:38:51.136Z,22.92
2022-09-23T11:41:54.598Z,24.55
2022-09-23T11:44:56.846Z,21.92
2022-09-23T11:47:59.493Z,19.20
2022-09-23T11:51:01.706Z,18.02
2022-09-23T11:54:04.601Z,21.10
2022-09-23T11:57:08.022Z,19.40
2022-09-23T12:00:11.963Z,21.33
2022-09-23T12:03:15.913Z,16.70
2022-09-23T12:06:18.879Z,17.02
2022-09-23T12:09:35.770Z,19.23
2022-09-23T12:12:43.682Z,16.13
2022-09-23T12:15:46.244Z,10.77
2022-09-23T12:18:49.120Z,10.35
2022-09-23T12:21:51.937Z,11.63
2022-09-23T12:24:55.653Z,14.07
2022-09-23T12:27:58.709Z,11.25
2022-09-23T12:31:02.471Z,11.85
2022-09-23T12:34:05.335Z,8.13
2022-09-23T12:37:08.147Z,10.27
2022-09-23T12:40:10.742Z,9.15
2022-09-23T12:43:13.348Z,10.60
2022-09-23T12:46:15.890Z,12.75
2022-09-23T12:49:18.512Z,10.43
2022-09-23T12:52:20.681Z,9.20
2022-09-23T12:55:23.133Z,10.60
2022-09-23T12:58:25.535Z,9.00
2022-09-23T13:01:27.823Z,8.48
2022-09-23T13:04:30.800Z,9.40
2022-09-23T13:07:33.897Z,10.07
2022-09-23T13:10:37.162Z,11.57
2022-09-23T13:13:40.386Z,10.10
2022-09-23T13:16:43.611Z,8.93
2022-09-23T13:19:46.712Z,10.27
2022-09-23T13:22:49.702Z,8.77
2022-09-23T13:25:52.934Z,7.80
2022-09-23T13:28:55.826Z,7.72
2022-09-23T13:31:59.147Z,7.75
2022-09-23T13:35:01.846Z,7.90
2022-09-23T13:38:04.896Z,6.75
2022-09-23T13:41:07.753Z,11.95
2022-09-23T13:44:11.782Z,7.60
2022-09-23T13:47:14.849Z,7.03
2022-09-23T13:50:17.161Z,7.75
2022-09-23T13:53:19.453Z,7.00
2022-09-23T13:56:22.426Z,10.00
2022-09-23T13:59:25.306Z,9.73
2022-09-23T14:02:28.055Z,6.50
2022-09-23T14:05:30.618Z,6.50
2022-09-23T14:08:33.403Z,6.13
2022-09-23T14:11:35.622Z,5.93
2022-09-23T14:14:37.936Z,6.10
2022-09-23T14:17:41.002Z,4.65
2022-09-23T14:20:44.709Z,7.03
2022-09-23T14:23:47.750Z,5.47
2022-09-23T14:26:50.626Z,6.82
2022-09-23T14:29:53.306Z,5.45
2022-09-23T14:32:55.616Z,5.30
2022-09-23T14:35:58.361Z,6.03
2022-09-23T14:39:01.271Z,4.63
2022-09-23T14:42:04.250Z,7.63
2022-09-23T14:45:07.625Z,4.72
2022-09-23T14:48:10.781Z,6.05
2022-09-23T14:51:17.047Z,6.60
2022-09-23T14:54:19.751Z,6.25
2022-09-23T14:57:22.603Z,6.70
2022-09-23T15:00:26.246Z,7.45
2022-09-23T15:03:28.659Z,4.40
2022-09-23T15:06:31.363Z,7.40
2022-09-23T15:09:34.471Z,4.70
2022-09-23T15:12:38.062Z,5.28
2022-09-23T15:15:40.852Z,6.30
2022-09-23T15:18:43.713Z,5.90
2022-09-23T15:21:47.309Z,4.65
2022-09-23T15:24:50.159Z,4.28
2022-09-23T15:27:53.692Z,4.32
2022-09-23T15:30:57.011Z,7.43
2022-09-23T15:33:59.481Z,3.92
2022-09-23T15:37:02.661Z,5.80
2022-09-23T15:40:05.389Z,5.25
2022-09-23T15:43:09.118Z,4.95
2022-09-23T15:46:12.072Z,4.95
2022-09-23T15:49:14.270Z,4.68
2022-09-23T15:52:17.306Z,5.22
2022-09-23T15:55:20.456Z,4.72
2022-09-23T15:58:24.113Z,4.88
2022-09-23T16:01:27.081Z,5.90
2022-09-23T16:04:30.379Z,4.43
2022-09-23T16:07:33.745Z,4.70
2022-09-23T16:10:36.738Z,5.75
2022-09-23T16:13:39.137Z,6.00
2022-09-23T16:16:41.744Z,7.03
2022-09-23T16:19:44.599Z,5.95
2022-09-23T16:22:47.623Z,16.80
2022-09-23T16:25:50.571Z,29.23
2022-09-23T16:28:53.730Z,30.33
2022-09-23T16:31:56.612Z,25.45
2022-09-23T16:34:58.803Z,24.10
2022-09-23T16:38:01.439Z,23.75
2022-09-23T16:41:04.066Z,27.30
2022-09-23T16:44:06.286Z,23.42
2022-09-23T16:47:09.214Z,22.52
2022-09-23T16:50:12.395Z,21.83
2022-09-23T16:53:15.272Z,21.05
2022-09-23T16:56:18.117Z,19.00
2022-09-23T16:59:21.497Z,17.75
2022-09-23T17:02:23.988Z,18.83
2022-09-23T17:05:27.236Z,19.00
2022-09-23T17:08:30.044Z,17.92
2022-09-23T17:11:34.129Z,15.80
2022-09-23T17:14:36.665Z,15.15
2022-09-23T17:17:39.610Z,14.75
2022-09-23T17:20:42.037Z,14.32
2022-09-23T17:23:44.964Z,13.77
2022-09-23T17:26:52.008Z,13.75
2022-09-23T17:29:55.490Z,15.35
2022-09-23T17:32:58.321Z,13.68
2022-09-23T17:36:01.047Z,13.32
2022-09-23T17:39:03.424Z,12.13
2022-09-23T17:42:06.418Z,11.93
2022-09-23T17:45:09.206Z,12.23
2022-09-23T17:48:11.720Z,11.95
2022-09-23T17:51:14.463Z,11.45
2022-09-23T17:54:16.929Z,10.40
2022-09-23T17:57:19.520Z,10.77
2022-09-23T18:00:22.597Z,9.55
2022-09-23T18:03:24.789Z,11.50
2022-09-23T18:06:27.325Z,10.38
2022-09-23T18:09:29.598Z,11.10
2022-09-23T18:12:32.166Z,11.80
2022-09-23T18:15:35.472Z,10.95
2022-09-23T18:18:38.288Z,8.48
2022-09-23T18:21:41.092Z,9.57
2022-09-23T18:24:44.041Z,10.68
2022-09-23T18:27:46.693Z,10.15
2022-09-23T18:30:49.369Z,9.55
2022-09-23T18:33:52.319Z,8.38
2022-09-23T18:36:55.141Z,9.18
2022-09-23T18:39:57.741Z,9.85
2022-09-23T18:43:00.061Z,9.10
2022-09-23T18:46:03.226Z,8.20
2022-09-23T18:49:06.641Z,11.13
2022-09-23T18:52:09.419Z,9.50
2022-09-23T18:55:12.671Z,10.05
2022-09-23T18:58:15.647Z,9.27
2022-09-23T19:01:19.258Z,9.07
2022-09-23T19:04:22.738Z,10.57
2022-09-23T19:07:26.276Z,9.30
2022-09-23T19:10:28.470Z,11.07
2022-09-23T19:13:31.458Z,9.05
2022-09-23T19:16:34.363Z,10.52
2022-09-23T19:19:36.501Z,12.27
2022-09-23T19:22:38.709Z,10.88
2022-09-23T19:25:41.190Z,9.68
2022-09-23T19:28:44.044Z,9.38
2022-09-23T19:31:48.137Z,9.48
2022-09-23T19:34:50.968Z,10.02
2022-09-23T19:37:53.472Z,7.53
2022-09-23T19:40:56.523Z,9.57
2022-09-23T19:43:59.483Z,9.05
2022-09-23T19:47:01.739Z,7.60
2022-09-23T19:50:04.789Z,7.40
2022-09-23T19:53:08.118Z,9.07
2022-09-23T19:56:11.056Z,8.27
2022-09-23T19:59:18.340Z,6.40
2022-09-23T20:02:21.785Z,8.85
2022-09-23T20:05:24.526Z,7.18
2022-09-23T20:08:29.877Z,7.25
2022-09-23T20:11:32.681Z,8.35
2022-09-23T20:14:35.617Z,11.13
2022-09-23T20:17:38.486Z,7.53
2022-09-23T20:20:41.058Z,8.30
2022-09-23T20:23:43.941Z,7.25
2022-09-23T20:26:47.068Z,7.90
2022-09-23T20:29:49.730Z,7.57
2022-09-23T20:32:52.501Z,8.02
2022-09-23T20:35:55.294Z,9.55
2022-09-23T20:38:58.244Z,6.90
2022-09-23T20:42:00.819Z,9.73
2022-09-23T20:45:03.460Z,7.43
2022-09-23T20:48:05.985Z,7.95
2022-09-23T20:51:08.777Z,8.15
2022-09-23T20:54:11.431Z,7.07
2022-09-23T20:57:13.681Z,5.97
2022-09-23T21:00:16.230Z,6.57
2022-09-23T21:03:18.720Z,7.32
2022-09-23T21:06:21.742Z,7.35
2022-09-23T21:09:24.265Z,7.82
2022-09-23T21:12:26.894Z,7.50
2022-09-23T21:15:29.827Z,7.28
2022-09-23T21:18:32.648Z,7.95
2022-09-23T21:21:35.797Z,9.25
2022-09-23T21:25:25.883Z,7.88
2022-09-23T21:28:01.750Z,8.68
2022-09-23T21:31:04.399Z,7.38
2022-09-23T21:34:07.761Z,7.15
2022-09-23T21:37:11.126Z,7.20
2022-09-23T21:40:14.052Z,7.07
2022-09-23T21:43:17.207Z,7.93
2022-09-23T21:46:20.074Z,10.98
2022-09-23T21:49:22.861Z,7.57
2022-09-23T21:52:25.054Z,7.05
2022-09-23T21:55:28.033Z,7.28
2022-09-23T21:58:31.293Z,8.10
2022-09-23T22:01:34.169Z,6.22
2022-09-23T22:04:36.364Z,7.13
2022-09-23T22:07:38.513Z,8.45
2022-09-23T22:10:41.064Z,8.32
2022-09-23T22:13:43.629Z,7.53
2022-09-23T22:16:46.180Z,8.20
2022-09-23T22:19:49.167Z,7.63
2022-09-23T22:22:52.310Z,7.45
2022-09-23T22:25:58.353Z,10.25
2022-09-23T22:29:03.364Z,9.23
2022-09-23T22:32:06.100Z,9.20
2022-09-23T22:35:08.820Z,8.38
2022-09-23T22:38:11.281Z,9.25
2022-09-23T22:41:14.254Z,9.70
2022-09-23T22:44:17.061Z,7.20
2022-09-23T22:47:19.973Z,9.10
2022-09-23T22:50:22.881Z,9.70
2022-09-23T22:53:25.737Z,8.98
2022-09-23T22:56:28.471Z,9.10
2022-09-23T22:59:30.905Z,9.55
2022-09-23T23:02:33.778Z,8.90
2022-09-23T23:05:36.416Z,9.00
2022-09-23T23:08:38.969Z,9.88
2022-09-23T23:11:41.620Z,8.25
2022-09-23T23:14:44.570Z,8.40
2022-09-23T23:17:47.428Z,9.45
2022-09-23T23:20:50.053Z,8.45
2022-09-23T23:23:52.189Z,8.15
2022-09-23T23:26:54.397Z,8.07
2022-09-23T23:29:57.037Z,8.15
2022-09-23T23:32:59.158Z,8.82
2022-09-23T23:36:01.814Z,8.57
2022-09-23T23:39:03.980Z,8.25
2022-09-23T23:42:06.531Z,9.63
2022-09-23T23:45:09.577Z,9.95
2022-09-23T23:48:12.947Z,8.02
2022-09-23T23:51:15.867Z,10.27
2022-09-23T23:54:19.146Z,9.30
2022-09-23T23:57:22.396Z,8.88
